Time;durP1;ratioP1;P1;durP2;ratioP2;P2;SDS_P1;SDS_P2;PMS_P1;PMS_P2;Temp;Humidity;BMP_temperature;BMP_pressure;BME280_temperature;BME280_humidity;BME280_pressure;Samples;Min_cycle;Max_cycle;Signal;HPM_P1;HPM_P2
2023/12/30 00:01:55;;;;;;;3.40;1.97;;;10.10;99.90;;;;;;5008335;28;20475;-68
2023/12/30 00:04:22;;;;;;;3.23;1.60;;;10.00;99.90;;;;;;5006227;28;20447;-67
2023/12/30 00:06:51;;;;;;;4.80;1.43;;;10.00;99.90;;;;;;5003513;28;20907;-67
2023/12/30 00:09:18;;;;;;;1.40;1.27;;;10.00;99.90;;;;;;5006795;28;20507;-67
2023/12/30 00:11:45;;;;;;;3.30;2.27;;;10.00;99.90;;;;;;5004692;28;20443;-68
2023/12/30 00:14:11;;;;;;;6.50;1.73;;;10.00;99.90;;;;;;5009778;28;20483;-67
2023/12/30 00:16:39;;;;;;;5.70;1.50;;;10.00;99.90;;;;;;5000960;28;21035;-67
2023/12/30 00:19:06;;;;;;;5.13;1.47;;;10.00;99.90;;;;;;5007126;28;20431;-67
2023/12/30 00:21:33;;;;;;;1.70;1.40;;;10.00;99.90;;;;;;5004341;28;20986;-67
2023/12/30 00:24:01;;;;;;;1.97;1.53;;;10.00;99.90;;;;;;5007977;28;20456;-68
2023/12/30 00:26:27;;;;;;;2.70;1.20;;;10.00;99.90;;;;;;5002543;28;20457;-68
2023/12/30 00:28:54;;;;;;;7.00;1.77;;;9.90;99.90;;;;;;5007522;28;21094;-68
2023/12/30 00:31:23;;;;;;;3.03;1.80;;;9.90;99.90;;;;;;5005089;28;20560;-69
2023/12/30 00:33:50;;;;;;;2.67;1.90;;;10.00;99.90;;;;;;5009711;28;21010;-67
2023/12/30 00:36:17;;;;;;;12.40;1.47;;;10.10;99.90;;;;;;5004127;28;20944;-67
2023/12/30 00:38:43;;;;;;;1.63;1.40;;;10.00;99.90;;;;;;5009069;28;20450;-67
2023/12/30 00:41:13;;;;;;;3.67;1.30;;;10.10;99.90;;;;;;5006025;28;20469;-67
2023/12/30 00:43:41;;;;;;;1.07;0.90;;;10.10;99.90;;;;;;5005946;28;21239;-67
2023/12/30 00:46:08;;;;;;;1.87;1.30;;;10.00;99.90;;;;;;5004968;28;20558;-68
2023/12/30 00:48:35;;;;;;;6.10;2.30;;;9.90;99.90;;;;;;5005674;28;20583;-67
2023/12/30 00:51:02;;;;;;;4.23;1.93;;;9.90;99.90;;;;;;5005151;28;21664;-67
2023/12/30 00:53:29;;;;;;;7.50;1.53;;;9.90;99.90;;;;;;5004020;28;20483;-67
2023/12/30 00:55:56;;;;;;;2.70;2.07;;;9.90;99.90;;;;;;5004861;28;20471;-69
2023/12/30 00:58:24;;;;;;;8.00;1.77;;;9.80;99.90;;;;;;5006559;28;20825;-68
2023/12/30 01:00:52;;;;;;;3.23;1.80;;;9.70;99.90;;;;;;5003693;28;20559;-67
2023/12/30 01:03:19;;;;;;;3.37;2.13;;;9.80;99.90;;;;;;5004972;28;20459;-67
2023/12/30 01:05:46;;;;;;;4.43;1.20;;;9.80;99.90;;;;;;5005156;28;20465;-68
2023/12/30 01:08:13;;;;;;;1.07;0.97;;;9.80;99.90;;;;;;5009166;28;20467;-67
2023/12/30 01:10:40;;;;;;;8.53;1.57;;;9.80;99.90;;;;;;5005917;28;20439;-67
2023/12/30 01:13:07;;;;;;;3.40;3.20;;;9.80;99.90;;;;;;5004881;28;20477;-67
2023/12/30 01:15:36;;;;;;;7.40;1.90;;;9.80;99.90;;;;;;5003425;28;20504;-67
2023/12/30 01:18:03;;;;;;;1.83;1.50;;;9.80;99.90;;;;;;5002969;28;20433;-68
2023/12/30 01:20:30;;;;;;;2.33;1.67;;;9.80;99.90;;;;;;5008860;28;20479;-68
2023/12/30 01:22:56;;;;;;;2.60;1.30;;;9.80;99.90;;;;;;5009203;28;20433;-67
2023/12/30 01:25:23;;;;;;;6.60;1.40;;;9.80;99.90;;;;;;5010981;28;20476;-67
2023/12/30 01:27:50;;;;;;;2.53;1.83;;;9.80;99.90;;;;;;5008213;28;20607;-66
2023/12/30 01:30:17;;;;;;;3.03;2.03;;;9.70;99.90;;;;;;5003100;28;20493;-68
2023/12/30 01:32:45;;;;;;;1.10;1.00;;;9.70;99.90;;;;;;5003993;28;20480;-67
2023/12/30 01:35:14;;;;;;;2.23;1.63;;;9.70;99.90;;;;;;5006275;28;20480;-68
2023/12/30 01:37:41;;;;;;;2.00;1.50;;;9.70;99.90;;;;;;5006008;28;20568;-67
2023/12/30 01:40:08;;;;;;;2.00;1.47;;;9.70;99.90;;;;;;5009279;28;20420;-67
2023/12/30 01:42:35;;;;;;;1.30;1.10;;;9.70;99.90;;;;;;5008458;28;20438;-67
2023/12/30 01:45:02;;;;;;;2.70;1.50;;;9.60;99.90;;;;;;5010030;28;20492;-67
2023/12/30 01:47:29;;;;;;;2.37;2.17;;;9.60;99.90;;;;;;5001966;28;20431;-67
2023/12/30 01:49:57;;;;;;;5.23;1.53;;;9.60;99.90;;;;;;5002481;28;20496;-66
2023/12/30 01:52:24;;;;;;;1.70;1.60;;;9.60;99.90;;;;;;5009186;28;20564;-67
2023/12/30 01:54:51;;;;;;;4.50;1.90;;;9.60;99.90;;;;;;5010946;28;20904;-67
2023/12/30 01:57:19;;;;;;;4.20;1.73;;;9.50;99.90;;;;;;5010781;28;20462;-67
2023/12/30 01:59:47;;;;;;;1.67;1.30;;;9.50;99.90;;;;;;5011188;28;20496;-68
2023/12/30 02:02:14;;;;;;;1.63;1.20;;;9.50;99.90;;;;;;5011023;28;20461;-68
2023/12/30 02:04:42;;;;;;;1.37;1.27;;;9.50;99.90;;;;;;5006678;28;20572;-67
2023/12/30 02:07:10;;;;;;;1.97;1.17;;;9.50;99.90;;;;;;5008552;28;20467;-68
2023/12/30 02:09:37;;;;;;;2.03;1.77;;;9.50;99.90;;;;;;5008958;28;20819;-67
2023/12/30 02:12:05;;;;;;;4.00;2.90;;;9.50;99.90;;;;;;5008975;28;20884;-67
2023/12/30 02:14:32;;;;;;;3.17;1.47;;;9.50;99.90;;;;;;5009354;28;20469;-68
2023/12/30 02:17:00;;;;;;;4.50;1.97;;;9.50;99.90;;;;;;5008355;28;20504;-67
2023/12/30 02:19:25;;;;;;;2.53;1.50;;;9.50;99.90;;;;;;5007428;28;20462;-67
2023/12/30 02:21:53;;;;;;;3.67;1.90;;;9.60;99.90;;;;;;5007039;28;20559;-68
2023/12/30 02:24:21;;;;;;;2.20;2.10;;;9.50;99.90;;;;;;5005326;28;20333;-67
2023/12/30 02:26:48;;;;;;;5.23;2.07;;;9.50;99.90;;;;;;5002109;28;20473;-69
2023/12/30 02:29:15;;;;;;;5.00;1.80;;;9.60;99.90;;;;;;5004018;28;20493;-68
2023/12/30 02:31:46;;;;;;;10.70;2.60;;;9.40;99.90;;;;;;4999147;28;20491;-67
2023/12/30 02:34:14;;;;;;;2.30;2.10;;;9.40;99.90;;;;;;5008343;28;20582;-67
2023/12/30 02:36:40;;;;;;;3.57;1.20;;;9.30;99.90;;;;;;5001988;28;20457;-67
2023/12/30 02:39:07;;;;;;;3.43;1.10;;;9.30;99.90;;;;;;4998303;28;21016;-67
2023/12/30 02:41:41;;;;;;;1.83;1.17;;;9.30;99.90;;;;;;4988584;28;20557;-67
2023/12/30 02:44:09;;;;;;;7.50;1.57;;;9.30;99.90;;;;;;4997853;28;20469;-67
2023/12/30 02:46:35;;;;;;;2.70;1.63;;;9.30;99.90;;;;;;5002744;28;20467;-67
2023/12/30 02:49:03;;;;;;;2.07;1.00;;;9.20;99.90;;;;;;5001848;28;20491;-67
2023/12/30 02:51:30;;;;;;;1.70;1.30;;;9.20;99.90;;;;;;5000783;28;20464;-67
2023/12/30 02:53:57;;;;;;;1.20;1.00;;;9.20;99.90;;;;;;5001834;28;20438;-67
2023/12/30 02:56:26;;;;;;;2.20;1.40;;;9.20;99.90;;;;;;5006304;28;20461;-69
2023/12/30 02:58:57;;;;;;;1.00;0.80;;;9.10;99.90;;;;;;5001154;28;20472;-67
2023/12/30 03:01:25;;;;;;;5.40;1.67;;;9.10;99.90;;;;;;5002939;28;20431;-67
2023/12/30 03:03:53;;;;;;;1.60;1.37;;;9.10;99.90;;;;;;5002234;28;20509;-67
2023/12/30 03:06:21;;;;;;;1.10;0.87;;;9.00;99.90;;;;;;5001803;28;20476;-67
2023/12/30 03:08:47;;;;;;;6.63;1.97;;;9.00;99.90;;;;;;5001601;28;20456;-68
2023/12/30 03:11:15;;;;;;;8.27;2.37;;;9.00;99.90;;;;;;5005088;28;20469;-68
2023/12/30 03:13:42;;;;;;;2.97;2.13;;;9.10;99.90;;;;;;5001834;28;20850;-66
2023/12/30 03:16:11;;;;;;;2.70;1.37;;;9.10;99.90;;;;;;5004199;28;20472;-66
2023/12/30 03:18:38;;;;;;;2.23;1.70;;;9.10;99.90;;;;;;5003540;28;20832;-70
2023/12/30 03:21:08;;;;;;;1.20;1.03;;;9.10;99.90;;;;;;5002833;28;20468;-67
2023/12/30 03:23:34;;;;;;;2.60;1.50;;;9.10;99.90;;;;;;5004809;28;20542;-67
2023/12/30 03:26:02;;;;;;;3.47;1.60;;;9.00;99.90;;;;;;5002207;28;20809;-67
2023/12/30 03:28:29;;;;;;;1.93;1.40;;;9.00;99.90;;;;;;5004588;28;20517;-67
2023/12/30 03:30:55;;;;;;;2.40;1.20;;;9.00;99.90;;;;;;5000893;28;21018;-67
2023/12/30 03:33:24;;;;;;;2.17;1.10;;;9.00;99.90;;;;;;5004322;28;20507;-68
2023/12/30 03:35:50;;;;;;;2.10;1.50;;;9.00;99.90;;;;;;5000047;28;20472;-67
2023/12/30 03:38:17;;;;;;;1.87;0.93;;;8.90;99.90;;;;;;5007337;28;20457;-67
2023/12/30 03:40:44;;;;;;;1.70;1.00;;;8.90;99.90;;;;;;5007655;28;20472;-67
2023/12/30 03:43:11;;;;;;;2.50;1.30;;;8.90;99.90;;;;;;5008271;28;20453;-67
2023/12/30 03:45:38;;;;;;;5.80;1.90;;;8.90;99.90;;;;;;5008295;28;20449;-67
2023/12/30 03:48:05;;;;;;;1.93;1.20;;;8.90;99.90;;;;;;5013685;28;20460;-67
2023/12/30 03:50:33;;;;;;;7.13;1.63;;;8.90;99.90;;;;;;5010887;28;20484;-67
2023/12/30 03:53:00;;;;;;;1.50;1.40;;;8.90;99.90;;;;;;5013265;28;20440;-67
2023/12/30 03:55:27;;;;;;;2.80;1.67;;;8.90;99.90;;;;;;5009375;28;20449;-67
2023/12/30 03:57:54;;;;;;;8.53;1.73;;;8.80;99.90;;;;;;5007026;28;20469;-67
2023/12/30 04:00:21;;;;;;;3.20;1.93;;;8.90;99.90;;;;;;5004517;28;20446;-67
2023/12/30 04:02:48;;;;;;;8.83;3.80;;;8.80;99.90;;;;;;5005019;28;20484;-67
2023/12/30 04:05:14;;;;;;;1.77;1.53;;;8.80;99.90;;;;;;5009171;28;20599;-67
2023/12/30 04:07:42;;;;;;;1.33;1.23;;;8.80;99.90;;;;;;5009184;28;20465;-67
2023/12/30 04:10:12;;;;;;;2.07;1.10;;;8.70;99.90;;;;;;5009799;28;20491;-67
2023/12/30 04:12:39;;;;;;;2.00;1.17;;;8.70;99.90;;;;;;5008601;28;20455;-67
2023/12/30 04:15:07;;;;;;;2.40;1.53;;;8.70;99.90;;;;;;5004573;28;20512;-67
2023/12/30 04:17:36;;;;;;;1.30;0.93;;;8.70;99.90;;;;;;5004656;28;20472;-67
2023/12/30 04:20:03;;;;;;;1.10;0.93;;;8.80;99.90;;;;;;5003167;28;20423;-67
2023/12/30 04:22:30;;;;;;;11.10;4.53;;;8.80;99.90;;;;;;5007952;28;20471;-68
2023/12/30 04:24:58;;;;;;;2.30;2.10;;;8.80;99.90;;;;;;5006816;28;20595;-68
2023/12/30 04:27:24;;;;;;;1.57;1.43;;;8.90;99.90;;;;;;5004724;28;20897;-67
2023/12/30 04:29:51;;;;;;;2.30;1.57;;;8.90;99.90;;;;;;5003489;28;20492;-66
2023/12/30 04:32:20;;;;;;;1.13;1.03;;;8.90;99.90;;;;;;5005412;28;20826;-67
2023/12/30 04:34:47;;;;;;;0.90;0.70;;;8.60;99.90;;;;;;5008729;28;20489;-66
2023/12/30 04:37:14;;;;;;;1.70;1.60;;;8.20;99.90;;;;;;5007760;28;20447;-67
2023/12/30 04:39:41;;;;;;;1.10;1.00;;;8.00;99.90;;;;;;5006447;28;20440;-66
2023/12/30 04:42:09;;;;;;;1.43;1.10;;;8.00;99.90;;;;;;5003247;28;28933;-67
2023/12/30 04:44:36;;;;;;;4.20;1.67;;;8.00;99.90;;;;;;5008594;28;20472;-67
2023/12/30 04:47:02;;;;;;;1.00;0.90;;;8.00;99.90;;;;;;5004039;28;20579;-67
2023/12/30 04:49:29;;;;;;;11.00;1.57;;;8.00;99.90;;;;;;5007728;28;20462;-67
2023/12/30 04:51:56;;;;;;;1.50;1.40;;;7.90;99.90;;;;;;5003564;28;20439;-67
2023/12/30 04:54:24;;;;;;;1.60;1.30;;;7.80;99.90;;;;;;5007804;28;20462;-68
2023/12/30 04:56:52;;;;;;;2.13;1.70;;;7.70;99.90;;;;;;5005164;28;20481;-68
2023/12/30 04:59:20;;;;;;;1.37;1.03;;;7.80;99.90;;;;;;5009945;28;20539;-67
2023/12/30 05:01:47;;;;;;;1.00;0.83;;;7.80;99.90;;;;;;5000323;28;20476;-67
2023/12/30 05:04:13;;;;;;;3.50;2.37;;;7.80;99.90;;;;;;5006449;28;20811;-67
2023/12/30 05:06:40;;;;;;;1.00;0.90;;;7.70;99.90;;;;;;5007322;28;20442;-68
2023/12/30 05:09:08;;;;;;;2.80;1.77;;;7.70;99.90;;;;;;5005579;28;20453;-68
2023/12/30 05:11:35;;;;;;;4.37;2.03;;;7.60;99.90;;;;;;5007511;28;20453;-67
2023/12/30 05:14:02;;;;;;;3.10;1.60;;;7.60;99.90;;;;;;5006235;28;20488;-68
2023/12/30 05:16:30;;;;;;;2.57;1.60;;;7.70;99.90;;;;;;5005753;28;20457;-67
2023/12/30 05:18:56;;;;;;;3.23;1.23;;;7.70;99.90;;;;;;5009073;28;20444;-67
2023/12/30 05:21:23;;;;;;;10.27;2.13;;;7.70;99.90;;;;;;5007960;28;20525;-68
2023/12/30 05:23:50;;;;;;;5.40;1.43;;;7.70;99.90;;;;;;5007391;28;20472;-67
2023/12/30 05:26:18;;;;;;;3.60;1.33;;;7.80;99.90;;;;;;5001525;28;20790;-67
2023/12/30 05:28:45;;;;;;;2.30;1.73;;;7.80;99.90;;;;;;5002298;28;20448;-67
2023/12/30 05:31:11;;;;;;;2.17;1.30;;;7.80;99.90;;;;;;5003665;28;20545;-67
2023/12/30 05:33:40;;;;;;;6.03;1.50;;;7.80;99.90;;;;;;5007659;28;20469;-67
2023/12/30 05:36:08;;;;;;;4.23;1.60;;;7.90;99.90;;;;;;5006409;28;20469;-66
2023/12/30 05:38:34;;;;;;;6.10;1.27;;;7.90;99.90;;;;;;5005117;28;20446;-67
2023/12/30 05:41:01;;;;;;;5.80;1.23;;;8.00;99.90;;;;;;5005691;28;20580;-68
2023/12/30 05:43:28;;;;;;;2.10;1.47;;;8.00;99.90;;;;;;5005441;28;21001;-67
2023/12/30 05:45:55;;;;;;;3.60;1.43;;;8.00;99.90;;;;;;5003853;28;20470;-67
2023/12/30 05:48:21;;;;;;;4.07;1.90;;;8.00;99.90;;;;;;5007064;28;20451;-68
2023/12/30 05:50:50;;;;;;;3.53;2.33;;;8.00;99.90;;;;;;5003941;28;21024;-67
2023/12/30 05:53:16;;;;;;;7.70;1.73;;;8.00;99.90;;;;;;5005927;28;20491;-67
2023/12/30 05:55:43;;;;;;;2.40;1.60;;;8.10;99.90;;;;;;5000844;28;20464;-67
2023/12/30 05:58:10;;;;;;;5.53;1.83;;;8.10;99.90;;;;;;5005429;28;20796;-67
2023/12/30 06:00:37;;;;;;;1.30;1.03;;;8.10;99.90;;;;;;5006307;28;20436;-67
2023/12/30 06:03:04;;;;;;;2.97;1.53;;;8.10;99.90;;;;;;5005641;28;20472;-67
2023/12/30 06:05:31;;;;;;;11.60;1.83;;;8.10;99.90;;;;;;5008537;28;20456;-67
2023/12/30 06:07:59;;;;;;;6.10;2.30;;;8.10;99.90;;;;;;5005844;28;20472;-66
2023/12/30 06:10:26;;;;;;;1.93;1.20;;;8.10;99.90;;;;;;5006019;28;21256;-67
2023/12/30 06:12:52;;;;;;;5.27;1.13;;;8.10;99.90;;;;;;5010149;28;20453;-66
2023/12/30 06:15:21;;;;;;;3.13;1.53;;;8.20;99.90;;;;;;5011451;28;20486;-67
2023/12/30 06:17:48;;;;;;;3.87;1.10;;;8.20;99.90;;;;;;5012576;28;20468;-66
2023/12/30 06:20:14;;;;;;;1.33;0.90;;;8.20;99.90;;;;;;5013551;28;20471;-68
2023/12/30 06:22:41;;;;;;;16.33;2.70;;;8.30;99.90;;;;;;5006207;28;20480;-68
2023/12/30 06:25:09;;;;;;;5.53;1.70;;;8.30;99.90;;;;;;5007652;28;20469;-67
2023/12/30 06:27:36;;;;;;;4.03;2.40;;;8.30;99.90;;;;;;5005032;28;20916;-67
2023/12/30 06:30:03;;;;;;;2.80;1.60;;;8.20;99.90;;;;;;5011362;28;20454;-67
2023/12/30 06:32:30;;;;;;;1.67;1.57;;;8.20;99.90;;;;;;5008863;28;20450;-68
2023/12/30 06:34:57;;;;;;;3.43;1.53;;;8.30;99.90;;;;;;5010728;28;20497;-68
2023/12/30 06:37:24;;;;;;;10.93;2.00;;;8.20;99.90;;;;;;5007027;28;20436;-66
2023/12/30 06:39:50;;;;;;;9.47;2.20;;;8.20;99.90;;;;;;5010734;28;20940;-66
2023/12/30 06:42:18;;;;;;;6.40;2.60;;;8.20;99.90;;;;;;5007457;28;20491;-66
2023/12/30 06:44:47;;;;;;;5.73;1.40;;;8.20;99.90;;;;;;5009352;28;20467;-67
2023/12/30 06:47:13;;;;;;;11.10;2.50;;;8.20;99.90;;;;;;5004018;28;20959;-68
2023/12/30 06:49:40;;;;;;;1.30;1.03;;;8.30;99.90;;;;;;5003534;28;20456;-67
2023/12/30 06:52:07;;;;;;;1.20;0.90;;;8.30;99.90;;;;;;5007851;28;20819;-67
2023/12/30 06:54:34;;;;;;;2.07;1.33;;;8.30;99.90;;;;;;5006086;28;20538;-68
2023/12/30 06:57:00;;;;;;;1.67;1.10;;;8.30;99.90;;;;;;5009292;28;20493;-68
2023/12/30 06:59:29;;;;;;;9.80;1.80;;;8.30;99.90;;;;;;5009834;28;20447;-67
2023/12/30 07:01:55;;;;;;;2.80;2.30;;;8.40;99.90;;;;;;5010489;28;20464;-68
2023/12/30 07:04:26;;;;;;;2.50;2.10;;;8.30;99.90;;;;;;5007267;28;20465;-66
2023/12/30 07:06:53;;;;;;;2.47;1.50;;;8.30;99.90;;;;;;5008648;28;20576;-67
2023/12/30 07:09:19;;;;;;;0.90;0.80;;;8.30;99.90;;;;;;5006073;28;20445;-70
2023/12/30 07:11:46;;;;;;;4.00;1.93;;;8.30;99.90;;;;;;5009170;28;20502;-67
2023/12/30 07:14:14;;;;;;;16.53;1.97;;;8.20;99.90;;;;;;5021171;22;20661;-67
2023/12/30 07:16:42;;;;;;;5.27;2.63;;;8.30;99.90;;;;;;5030100;28;20890;-67
2023/12/30 07:19:09;;;;;;;5.87;0.93;;;8.20;99.90;;;;;;5024966;28;20458;-67
2023/12/30 07:21:35;;;;;;;4.07;3.00;;;8.20;99.90;;;;;;5026979;28;20466;-67
2023/12/30 07:24:02;;;;;;;2.23;1.90;;;8.20;99.90;;;;;;5030998;28;21009;-67
2023/12/30 07:26:29;;;;;;;4.07;1.93;;;8.20;99.90;;;;;;5027411;28;20980;-67
2023/12/30 07:28:55;;;;;;;5.07;2.33;;;8.20;99.90;;;;;;5019834;28;20554;-68
2023/12/30 07:31:22;;;;;;;4.43;1.60;;;8.20;99.90;;;;;;5031711;28;20495;-67
2023/12/30 07:33:50;;;;;;;3.20;1.20;;;8.30;99.90;;;;;;5031903;28;20498;-67
2023/12/30 07:36:17;;;;;;;3.90;2.90;;;8.40;99.90;;;;;;5031266;28;20550;-68
2023/12/30 07:38:44;;;;;;;1.70;1.60;;;8.40;99.90;;;;;;5031093;28;20423;-68
2023/12/30 07:41:14;;;;;;;8.40;1.90;;;8.50;99.90;;;;;;5030074;28;20467;-67
2023/12/30 07:43:41;;;;;;;11.03;2.73;;;8.40;99.90;;;;;;5029270;28;20819;-68
2023/12/30 07:46:07;;;;;;;4.13;1.70;;;8.40;99.90;;;;;;5024561;28;20467;-68
2023/12/30 07:48:34;;;;;;;8.43;2.80;;;8.40;99.90;;;;;;5021806;28;20428;-68
2023/12/30 07:51:03;;;;;;;2.63;1.60;;;8.40;99.90;;;;;;5027095;28;20472;-68
2023/12/30 07:53:30;;;;;;;1.20;1.10;;;8.30;99.90;;;;;;5022572;28;20468;-69
2023/12/30 07:55:57;;;;;;;8.47;2.20;;;8.40;99.90;;;;;;5024338;28;20460;-67
2023/12/30 07:58:24;;;;;;;3.83;1.40;;;8.40;99.90;;;;;;5027514;28;20511;-67
2023/12/30 08:00:51;;;;;;;7.80;2.23;;;8.40;99.90;;;;;;5027839;28;20460;-68
2023/12/30 08:03:17;;;;;;;3.03;1.83;;;8.40;99.90;;;;;;5025469;28;20455;-69
2023/12/30 08:05:44;;;;;;;4.07;2.13;;;8.50;99.90;;;;;;5030703;28;20466;-68
2023/12/30 08:08:13;;;;;;;3.67;2.10;;;8.50;99.90;;;;;;5025788;28;20467;-68
2023/12/30 08:10:39;;;;;;;10.93;2.77;;;8.60;99.90;;;;;;5025136;28;20484;-68
2023/12/30 08:13:06;;;;;;;2.20;2.00;;;8.50;99.90;;;;;;5026321;28;20476;-68
2023/12/30 08:15:33;;;;;;;1.97;1.77;;;8.60;99.90;;;;;;5031243;28;20451;-68
2023/12/30 08:18:00;;;;;;;11.70;3.00;;;8.70;99.90;;;;;;5028702;28;20462;-68
2023/12/30 08:20:27;;;;;;;3.03;1.57;;;8.70;99.90;;;;;;5021595;28;20444;-68
2023/12/30 08:22:54;;;;;;;1.37;1.27;;;8.70;99.90;;;;;;5026663;28;20421;-68
2023/12/30 08:25:22;;;;;;;2.43;2.10;;;8.70;99.90;;;;;;5026463;28;20553;-68
2023/12/30 08:27:49;;;;;;;1.30;1.10;;;8.60;99.90;;;;;;5017818;28;21134;-67
2023/12/30 08:30:16;;;;;;;4.50;2.00;;;8.60;99.90;;;;;;5021869;28;20944;-67
2023/12/30 08:32:43;;;;;;;7.53;1.67;;;8.70;99.90;;;;;;5028297;28;20518;-67
2023/12/30 08:35:11;;;;;;;3.87;1.03;;;8.60;99.90;;;;;;5027324;28;20476;-67
2023/12/30 08:37:38;;;;;;;3.93;1.90;;;8.70;99.90;;;;;;5022556;28;20461;-67
2023/12/30 08:40:08;;;;;;;3.00;1.57;;;8.80;99.90;;;;;;5024553;28;20883;-67
2023/12/30 08:42:36;;;;;;;3.50;2.03;;;8.80;99.90;;;;;;5020291;28;20524;-68
2023/12/30 08:45:04;;;;;;;7.83;1.40;;;8.80;99.90;;;;;;5025056;28;20501;-67
2023/12/30 08:47:34;;;;;;;2.40;1.20;;;8.90;99.90;;;;;;5024479;28;20488;-67
2023/12/30 08:50:01;;;;;;;3.23;1.77;;;8.80;99.90;;;;;;5024179;28;20471;-67
2023/12/30 08:52:27;;;;;;;4.87;2.73;;;8.90;99.90;;;;;;5025170;28;20933;-67
2023/12/30 08:54:54;;;;;;;8.70;1.87;;;8.90;99.90;;;;;;5027383;28;20473;-67
2023/12/30 08:57:21;;;;;;;2.70;2.20;;;9.00;99.90;;;;;;5022716;28;20444;-68
2023/12/30 08:59:49;;;;;;;5.23;1.93;;;9.00;99.90;;;;;;5022304;28;20476;-68
2023/12/30 09:02:16;;;;;;;3.03;1.60;;;9.10;99.90;;;;;;5029899;28;20460;-67
2023/12/30 09:04:42;;;;;;;9.23;3.20;;;9.00;99.90;;;;;;5027709;28;20483;-67
2023/12/30 09:07:09;;;;;;;5.47;2.00;;;9.00;99.90;;;;;;5020781;28;20504;-67
2023/12/30 09:09:36;;;;;;;7.23;2.67;;;9.10;99.90;;;;;;5021617;28;21099;-67
2023/12/30 09:12:03;;;;;;;4.03;3.17;;;9.10;99.90;;;;;;5028031;28;20490;-67
2023/12/30 09:14:30;;;;;;;7.33;2.67;;;9.10;99.90;;;;;;5026811;28;20484;-67
2023/12/30 09:16:58;;;;;;;4.63;2.03;;;9.20;99.90;;;;;;5030065;28;20469;-67
2023/12/30 09:19:25;;;;;;;3.43;1.87;;;9.30;99.90;;;;;;5021480;28;20456;-67
2023/12/30 09:21:51;;;;;;;6.70;3.93;;;9.20;99.90;;;;;;5028746;28;20467;-67
2023/12/30 09:24:18;;;;;;;12.30;3.80;;;9.20;99.90;;;;;;5025423;28;20476;-67
2023/12/30 09:26:45;;;;;;;3.57;1.93;;;9.20;99.90;;;;;;5029184;28;20454;-67
2023/12/30 09:29:12;;;;;;;1.10;0.97;;;9.20;99.90;;;;;;5025190;28;20444;-70
2023/12/30 09:31:39;;;;;;;5.73;1.83;;;9.20;99.90;;;;;;5020228;28;20549;-67
2023/12/30 09:34:07;;;;;;;1.80;1.23;;;9.10;99.90;;;;;;5020962;28;20812;-67
2023/12/30 09:36:33;;;;;;;2.33;1.80;;;9.10;99.90;;;;;;5024695;28;20463;-67
2023/12/30 09:39:00;;;;;;;6.83;2.37;;;9.10;99.90;;;;;;5029394;28;20814;-68
2023/12/30 09:41:31;;;;;;;1.77;1.10;;;9.20;99.90;;;;;;5024971;28;20440;-67
2023/12/30 09:43:59;;;;;;;2.83;1.57;;;9.20;99.90;;;;;;5027928;28;20475;-67
2023/12/30 09:46:27;;;;;;;6.07;2.13;;;9.20;99.90;;;;;;5023608;28;20457;-68
2023/12/30 09:48:58;;;;;;;7.60;1.83;;;9.20;99.90;;;;;;5026051;28;20811;-68
2023/12/30 09:51:27;;;;;;;1.87;1.30;;;9.20;99.90;;;;;;5021735;28;20494;-67
2023/12/30 09:53:53;;;;;;;4.00;1.93;;;9.30;99.90;;;;;;5027788;28;20483;-68
2023/12/30 09:56:20;;;;;;;5.23;1.97;;;9.20;99.90;;;;;;5026269;28;20503;-68
2023/12/30 09:58:47;;;;;;;1.23;0.73;;;9.30;99.90;;;;;;5019932;28;20213;-68
2023/12/30 10:01:15;;;;;;;2.33;1.87;;;9.30;99.90;;;;;;5030075;28;20515;-69
2023/12/30 10:03:42;;;;;;;33.13;2.20;;;9.40;99.90;;;;;;5026975;28;20464;-68
2023/12/30 10:06:14;;;;;;;18.90;2.20;;;9.40;99.90;;;;;;5027600;28;20448;-68
2023/12/30 10:08:42;;;;;;;10.73;2.40;;;9.50;99.90;;;;;;5028457;28;20559;-68
2023/12/30 10:11:11;;;;;;;5.60;2.33;;;9.50;99.90;;;;;;5027193;28;20572;-68
2023/12/30 10:13:39;;;;;;;2.07;1.93;;;9.50;99.90;;;;;;5024637;28;20473;-68
2023/12/30 10:16:08;;;;;;;2.17;1.93;;;9.50;99.90;;;;;;5029366;28;20467;-68
2023/12/30 10:18:37;;;;;;;1.60;1.50;;;9.40;99.90;;;;;;5019719;28;20520;-68
2023/12/30 10:21:04;;;;;;;7.33;1.97;;;9.40;99.90;;;;;;5030664;28;20442;-69
2023/12/30 10:23:31;;;;;;;5.10;1.87;;;9.50;99.90;;;;;;5029618;28;20476;-69
2023/12/30 10:26:00;;;;;;;1.93;1.60;;;9.60;99.90;;;;;;5027608;28;20479;-68
2023/12/30 10:28:27;;;;;;;3.20;2.83;;;9.60;99.90;;;;;;5027706;28;20480;-69
2023/12/30 10:31:01;;;;;;;4.73;2.07;;;9.60;99.90;;;;;;5029001;28;21041;-67
2023/12/30 10:33:28;;;;;;;2.30;1.70;;;9.70;99.90;;;;;;5028755;28;20482;-67
2023/12/30 10:35:56;;;;;;;3.30;2.10;;;9.70;99.90;;;;;;5029675;28;20543;-67
2023/12/30 10:38:25;;;;;;;3.83;2.07;;;9.70;99.90;;;;;;5026366;28;20542;-67
2023/12/30 10:40:52;;;;;;;2.40;1.97;;;9.70;99.90;;;;;;5029054;28;20456;-67
2023/12/30 10:43:20;;;;;;;10.20;1.90;;;9.80;99.90;;;;;;5028579;28;20491;-67
2023/12/30 10:45:56;;;;;;;2.03;1.80;;;9.90;99.90;;;;;;5024514;28;20976;-68
2023/12/30 10:48:24;;;;;;;3.30;2.00;;;9.90;99.90;;;;;;5022319;28;20467;-67
2023/12/30 10:50:55;;;;;;;7.93;2.43;;;9.90;99.90;;;;;;5026460;28;20434;-67
2023/12/30 10:53:26;;;;;;;2.90;1.93;;;9.90;99.90;;;;;;5027291;28;20488;-68
2023/12/30 10:55:57;;;;;;;11.10;2.40;;;9.90;99.90;;;;;;5029445;28;20497;-67
2023/12/30 10:58:26;;;;;;;2.37;2.17;;;9.80;99.90;;;;;;5025709;28;20431;-67
2023/12/30 11:00:54;;;;;;;4.80;2.13;;;9.80;99.90;;;;;;5024658;28;20444;-67
2023/12/30 11:03:21;;;;;;;1.60;1.50;;;9.90;99.90;;;;;;5020737;28;20450;-67
2023/12/30 11:05:56;;;;;;;12.83;1.70;;;9.90;99.90;;;;;;5023795;28;20435;-67
2023/12/30 11:08:23;;;;;;;2.13;1.93;;;10.00;99.90;;;;;;5029594;28;20460;-68
2023/12/30 11:10:51;;;;;;;10.60;4.10;;;10.00;99.90;;;;;;5031368;28;20439;-68
2023/12/30 11:13:19;;;;;;;2.90;1.17;;;9.90;99.90;;;;;;5026747;28;20523;-68
2023/12/30 11:15:47;;;;;;;2.10;1.67;;;9.90;99.90;;;;;;5029453;28;20460;-68
2023/12/30 11:18:14;;;;;;;2.50;2.00;;;9.90;99.90;;;;;;5032092;28;20551;-68
2023/12/30 11:20:45;;;;;;;2.53;1.60;;;9.90;99.90;;;;;;5026834;28;20440;-68
2023/12/30 11:23:11;;;;;;;1.67;1.20;;;9.90;99.90;;;;;;5029531;28;20974;-68
2023/12/30 11:25:43;;;;;;;4.00;1.87;;;10.00;99.90;;;;;;5026563;28;20460;-67
2023/12/30 11:28:18;;;;;;;3.93;2.50;;;9.90;99.90;;;;;;5021894;28;20468;-67
2023/12/30 11:30:55;;;;;;;6.40;2.40;;;10.00;99.90;;;;;;5027931;28;20801;-69
2023/12/30 11:33:22;;;;;;;3.53;1.37;;;9.90;99.90;;;;;;5023289;28;20856;-67
2023/12/30 11:35:51;;;;;;;4.47;2.33;;;10.00;99.90;;;;;;5027444;28;20622;-68
2023/12/30 11:38:19;;;;;;;3.93;3.20;;;10.00;99.90;;;;;;5027493;28;20463;-67
2023/12/30 11:40:50;;;;;;;2.00;1.70;;;10.00;99.90;;;;;;5030855;28;20464;-67
2023/12/30 11:43:17;;;;;;;1.30;1.20;;;10.00;99.90;;;;;;5027371;28;20427;-67
2023/12/30 11:45:45;;;;;;;3.77;1.67;;;10.10;99.90;;;;;;5027418;28;20452;-68
2023/12/30 11:48:13;;;;;;;6.43;1.50;;;10.10;99.90;;;;;;5028161;28;20449;-68
2023/12/30 11:50:40;;;;;;;2.43;1.80;;;10.10;99.90;;;;;;5026273;28;21250;-67
2023/12/30 11:53:07;;;;;;;3.57;1.67;;;10.20;99.90;;;;;;5025395;28;20480;-68
2023/12/30 11:55:34;;;;;;;7.23;2.10;;;10.20;99.90;;;;;;5022260;28;20524;-67
2023/12/30 11:58:01;;;;;;;3.27;1.50;;;10.20;99.90;;;;;;5031881;28;20464;-67
2023/12/30 12:00:29;;;;;;;1.20;0.90;;;10.20;99.90;;;;;;5026342;28;20464;-67
2023/12/30 12:02:56;;;;;;;1.63;1.53;;;10.20;99.90;;;;;;5027712;28;20798;-69
2023/12/30 12:05:24;;;;;;;1.90;1.17;;;10.20;99.90;;;;;;5028946;28;20807;-68
2023/12/30 12:07:52;;;;;;;3.70;2.37;;;10.30;99.90;;;;;;5026699;28;20514;-68
2023/12/30 12:10:19;;;;;;;1.47;1.37;;;10.30;99.90;;;;;;5028303;28;20461;-68
2023/12/30 12:12:46;;;;;;;3.47;2.40;;;10.30;99.90;;;;;;5029055;28;20583;-68
2023/12/30 12:15:13;;;;;;;3.20;1.90;;;10.30;99.90;;;;;;5022532;28;20524;-68
2023/12/30 12:17:40;;;;;;;1.37;1.10;;;10.40;99.90;;;;;;5029650;28;20882;-68
2023/12/30 12:20:10;;;;;;;1.83;1.63;;;10.40;99.90;;;;;;5027227;28;20461;-68
2023/12/30 12:22:38;;;;;;;2.93;1.90;;;10.50;99.90;;;;;;5026058;28;20464;-69
2023/12/30 12:25:06;;;;;;;3.17;1.37;;;10.60;99.90;;;;;;5026562;28;20470;-68
2023/12/30 12:27:33;;;;;;;2.30;1.40;;;10.60;99.90;;;;;;5029904;28;20945;-68
2023/12/30 12:30:01;;;;;;;7.87;2.57;;;10.70;99.90;;;;;;5030515;28;20825;-68
2023/12/30 12:32:27;;;;;;;3.20;1.97;;;10.70;99.90;;;;;;5020628;28;20460;-67
2023/12/30 12:34:54;;;;;;;5.07;1.63;;;10.90;99.90;;;;;;5025543;28;20476;-67
2023/12/30 12:37:22;;;;;;;2.47;1.27;;;10.90;99.90;;;;;;5028289;28;20462;-67
2023/12/30 12:39:51;;;;;;;2.50;1.30;;;10.80;99.90;;;;;;5028439;28;21026;-69
2023/12/30 12:42:17;;;;;;;11.27;2.93;;;10.80;99.90;;;;;;5027012;28;20529;-69
2023/12/30 12:44:44;;;;;;;8.70;2.47;;;10.80;99.90;;;;;;5025378;28;20468;-68
2023/12/30 12:47:11;;;;;;;3.70;1.93;;;10.70;99.90;;;;;;5026019;28;20471;-70
2023/12/30 12:49:38;;;;;;;3.77;2.10;;;10.70;99.90;;;;;;5022891;28;20456;-67
2023/12/30 12:52:05;;;;;;;7.63;1.80;;;10.60;99.90;;;;;;5026397;28;20502;-68
2023/12/30 12:54:32;;;;;;;4.27;2.57;;;10.70;99.90;;;;;;5020577;28;20564;-67
2023/12/30 12:57:00;;;;;;;6.17;1.70;;;10.70;99.90;;;;;;5022084;28;20457;-67